Time;durP1;ratioP1;P1;durP2;ratioP2;P2;SDS_P1;SDS_P2;PMS_P1;PMS_P2;Temp;Humidity;BMP_temperature;BMP_pressure;BME280_temperature;BME280_humidity;BME280_pressure;Samples;Min_cycle;Max_cycle;Signal;HPM_P1;HPM_P2
2021/05/01 00:01:41;;;;;;;10.95;5.15;;;461.40;1689.60;;;;;;5054309;28;20539;-70
2021/05/01 00:04:07;;;;;;;9.85;5.80;;;461.30;1689.60;;;;;;5054073;28;20368;-70
2021/05/01 00:06:33;;;;;;;10.70;5.70;;;461.30;1689.60;;;;;;5054124;28;20021;-68
2021/05/01 00:08:58;;;;;;;8.02;5.40;;;461.30;1689.60;;;;;;5054056;28;20099;-71
2021/05/01 00:11:25;;;;;;;8.38;5.47;;;461.30;1715.20;;;;;;5053931;28;20017;-70
2021/05/01 00:13:58;;;;;;;8.57;5.38;;;461.30;1715.20;;;;;;5053915;28;20033;-70
2021/05/01 00:16:25;;;;;;;9.30;5.38;;;461.30;1715.20;;;;;;5053460;28;20451;-71
2021/05/01 00:18:51;;;;;;;12.60;6.00;;;461.30;1715.20;;;;;;5053802;28;20475;-71
2021/05/01 00:21:17;;;;;;;13.32;5.93;;;461.30;1715.20;;;;;;5053690;28;20021;-70
2021/05/01 00:23:42;;;;;;;11.40;5.75;;;461.20;1715.20;;;;;;5053751;28;20035;-70
2021/05/01 00:26:10;;;;;;;9.52;5.70;;;461.20;1715.20;;;;;;5053738;28;20486;-71
2021/05/01 00:28:38;;;;;;;7.75;5.25;;;461.20;1740.80;;;;;;5052396;28;20135;-71
2021/05/01 00:31:04;;;;;;;10.48;5.97;;;461.20;1740.80;;;;;;5053405;28;20013;-70
2021/05/01 00:33:30;;;;;;;11.23;5.20;;;461.10;1740.80;;;;;;5053584;28;20040;-70
2021/05/01 00:35:55;;;;;;;9.88;5.60;;;461.10;1740.80;;;;;;5053250;28;20025;-71
2021/05/01 00:38:21;;;;;;;13.18;5.53;;;461.10;1740.80;;;;;;5053429;28;20029;-68
2021/05/01 00:40:47;;;;;;;10.05;5.55;;;461.10;1740.80;;;;;;5053419;28;20025;-71
2021/05/01 00:43:12;;;;;;;8.90;6.07;;;461.00;1766.40;;;;;;5053284;28;20025;-70
2021/05/01 00:45:38;;;;;;;13.85;5.70;;;461.00;1766.40;;;;;;5053271;28;20104;-69
2021/05/01 00:48:04;;;;;;;12.45;6.70;;;461.00;1766.40;;;;;;5053037;28;20040;-70
2021/05/01 00:50:30;;;;;;;12.38;5.88;;;461.00;1766.40;;;;;;5053124;28;20052;-71
2021/05/01 00:52:56;;;;;;;11.77;6.57;;;461.00;1766.40;;;;;;5052780;28;20029;-70
2021/05/01 00:55:22;;;;;;;10.52;5.95;;;461.00;1792.00;;;;;;5052882;28;20539;-70
2021/05/01 00:57:48;;;;;;;12.00;6.18;;;460.90;1792.00;;;;;;5053110;28;20498;-70
2021/05/01 01:02:46;;;;;;;13.13;6.40;;;460.90;1792.00;;;;;;5052840;28;20364;-70
2021/05/01 01:05:12;;;;;;;13.65;6.82;;;460.90;1792.00;;;;;;5052906;28;20096;-70
2021/05/01 01:07:37;;;;;;;11.80;6.43;;;461.00;1792.00;;;;;;5053298;28;20390;-70
2021/05/01 01:10:04;;;;;;;11.88;6.97;;;460.90;1792.00;;;;;;5052895;28;20021;-70
2021/05/01 01:12:29;;;;;;;13.95;7.38;;;460.90;1792.00;;;;;;5052809;28;20035;-68
2021/05/01 01:14:59;;;;;;;10.80;6.50;;;460.90;1792.00;;;;;;5051382;28;20426;-71
2021/05/01 01:17:25;;;;;;;12.75;7.68;;;460.90;1792.00;;;;;;5052278;28;20049;-69
2021/05/01 01:19:52;;;;;;;9.60;7.13;;;460.90;1792.00;;;;;;5052664;28;20444;-69
2021/05/01 01:22:18;;;;;;;9.98;7.05;;;460.90;1792.00;;;;;;5052661;28;20033;-69
2021/05/01 01:24:45;;;;;;;11.57;6.85;;;460.90;1792.00;;;;;;5052662;28;20028;-72
2021/05/01 01:27:10;;;;;;;13.50;7.40;;;460.90;1792.00;;;;;;5052465;28;20033;-69
2021/05/01 01:29:42;;;;;;;13.48;7.43;;;460.90;1792.00;;;;;;5052232;28;20021;-68
2021/05/01 01:32:10;;;;;;;14.32;8.20;;;460.90;1792.00;;;;;;5052313;28;20433;-70
2021/05/01 01:34:41;;;;;;;13.95;7.30;;;460.90;1817.60;;;;;;5052284;28;20384;-70
2021/05/01 01:37:06;;;;;;;14.70;8.18;;;460.90;1817.60;;;;;;5052253;28;20075;-68
2021/05/01 01:39:32;;;;;;;13.55;7.32;;;460.90;1817.60;;;;;;5052270;28;20498;-69
2021/05/01 01:41:58;;;;;;;14.55;7.13;;;460.90;1817.60;;;;;;5052269;28;20029;-71
2021/05/01 01:44:23;;;;;;;15.48;7.75;;;461.00;1817.60;;;;;;5052015;28;20036;-68
2021/05/01 01:46:49;;;;;;;10.50;7.30;;;461.00;1817.60;;;;;;5052039;28;20100;-72
2021/05/01 01:49:15;;;;;;;12.00;7.03;;;461.00;1817.60;;;;;;5051878;28;20476;-72
2021/05/01 01:51:40;;;;;;;12.77;7.45;;;461.00;1817.60;;;;;;5052069;28;20032;-71
2021/05/01 01:54:06;;;;;;;12.65;7.43;;;461.00;1817.60;;;;;;5051778;28;20065;-71
2021/05/01 01:56:38;;;;;;;11.07;7.43;;;461.00;1817.60;;;;;;5051860;28;20463;-71
2021/05/01 01:59:04;;;;;;;13.60;7.28;;;461.00;1817.60;;;;;;5051878;28;20432;-71
2021/05/01 02:01:32;;;;;;;15.18;7.82;;;460.90;1817.60;;;;;;5051951;28;20031;-71
2021/05/01 02:03:58;;;;;;;12.98;7.57;;;461.00;1817.60;;;;;;5051872;28;20479;-70
2021/05/01 02:06:23;;;;;;;13.23;7.03;;;461.00;1817.60;;;;;;5051764;28;20116;-70
2021/05/01 02:08:49;;;;;;;10.90;6.97;;;461.00;1817.60;;;;;;5051952;28;20379;-70
2021/05/01 02:11:15;;;;;;;10.65;6.82;;;461.00;1817.60;;;;;;5050579;28;20029;-71
2021/05/01 02:13:41;;;;;;;13.13;8.10;;;461.00;1817.60;;;;;;5051677;28;20039;-70
2021/05/01 02:16:08;;;;;;;13.02;7.38;;;460.90;1817.60;;;;;;5051624;28;20423;-71
2021/05/01 02:18:34;;;;;;;11.25;7.18;;;460.90;1817.60;;;;;;5051246;28;20045;-70
2021/05/01 02:21:00;;;;;;;11.95;6.82;;;460.90;1817.60;;;;;;5051601;28;20028;-71
2021/05/01 02:23:26;;;;;;;12.48;7.15;;;460.90;1817.60;;;;;;5051265;28;20025;-71
2021/05/01 02:25:51;;;;;;;12.45;7.13;;;460.90;1817.60;;;;;;5051591;28;20256;-71
2021/05/01 02:28:18;;;;;;;13.20;6.97;;;460.90;1817.60;;;;;;5051517;28;20071;-71
2021/05/01 02:30:45;;;;;;;13.10;7.32;;;460.90;1817.60;;;;;;5051114;28;20031;-71
2021/05/01 02:33:11;;;;;;;17.80;7.85;;;460.80;1843.20;;;;;;5051358;28;20033;-71
2021/05/01 02:35:40;;;;;;;11.77;7.22;;;460.80;1843.20;;;;;;5051276;28;20502;-71
2021/05/01 02:38:07;;;;;;;11.75;7.55;;;460.80;1843.20;;;;;;5050973;28;20032;-70
2021/05/01 02:40:35;;;;;;;14.05;7.40;;;460.80;1817.60;;;;;;5050952;28;20052;-70
2021/05/01 02:43:09;;;;;;;13.75;7.60;;;460.80;1843.20;;;;;;5051152;28;20036;-68
2021/05/01 02:45:34;;;;;;;10.02;6.65;;;460.80;1843.20;;;;;;5050756;28;20436;-71
2021/05/01 02:48:01;;;;;;;16.02;7.72;;;460.80;1843.20;;;;;;5051217;28;20056;-70
2021/05/01 02:50:27;;;;;;;15.70;8.00;;;460.80;1843.20;;;;;;5050906;28;20024;-70
2021/05/01 02:52:52;;;;;;;13.95;8.18;;;460.80;1843.20;;;;;;5049324;28;20406;-72
2021/05/01 02:55:18;;;;;;;13.57;8.82;;;460.80;1843.20;;;;;;5050963;28;20075;-70
2021/05/01 02:57:44;;;;;;;12.07;8.02;;;460.80;1843.20;;;;;;5050873;28;20387;-71
2021/05/01 03:00:13;;;;;;;16.80;8.80;;;460.80;1843.20;;;;;;5050834;28;20116;-71
2021/05/01 03:02:39;;;;;;;17.35;8.85;;;460.80;1843.20;;;;;;5050854;28;20367;-70
2021/05/01 03:05:07;;;;;;;15.15;8.52;;;460.80;1843.20;;;;;;5050822;28;20102;-70
2021/05/01 03:07:33;;;;;;;14.90;8.68;;;460.80;1843.20;;;;;;5050750;28;20025;-70
2021/05/01 03:09:58;;;;;;;16.55;8.95;;;436.10;1817.60;;;;;;5051012;28;20032;-70
2021/05/01 03:12:24;;;;;;;15.45;9.75;;;436.10;1817.60;;;;;;5050593;28;20500;-71
2021/05/01 03:14:50;;;;;;;18.42;10.27;;;436.10;1817.60;;;;;;5050784;28;20486;-71
2021/05/01 03:17:16;;;;;;;16.75;9.70;;;436.10;1817.60;;;;;;5048761;28;20478;-70
2021/05/01 03:19:41;;;;;;;18.55;9.52;;;436.10;1817.60;;;;;;5050662;28;20037;-71
2021/05/01 03:22:08;;;;;;;20.00;10.00;;;436.10;1817.60;;;;;;5050289;28;20044;-71
2021/05/01 03:24:34;;;;;;;23.27;10.35;;;436.10;1817.60;;;;;;5050466;28;20021;-72
2021/05/01 03:27:00;;;;;;;20.35;10.38;;;436.00;1817.60;;;;;;5050764;28;20036;-68
2021/05/01 03:29:27;;;;;;;23.30;10.65;;;436.00;1817.60;;;;;;5050389;28;20570;-70
2021/05/01 03:31:53;;;;;;;18.60;10.50;;;436.00;1817.60;;;;;;5050143;28;20071;-70
2021/05/01 03:34:18;;;;;;;21.02;10.95;;;436.00;1817.60;;;;;;5050485;28;20036;-71
2021/05/01 03:36:44;;;;;;;17.15;11.57;;;436.00;1817.60;;;;;;5050280;28;20109;-72
2021/05/01 03:39:11;;;;;;;19.73;11.38;;;436.00;1817.60;;;;;;5050448;28;20086;-72
2021/05/01 03:41:37;;;;;;;23.20;10.82;;;436.00;1817.60;;;;;;5050256;28;20029;-71
2021/05/01 03:44:03;;;;;;;19.63;11.45;;;436.00;1817.60;;;;;;5050132;28;20082;-71
2021/05/01 03:46:28;;;;;;;17.20;11.20;;;436.00;1817.60;;;;;;5050097;28;20518;-71
2021/05/01 03:48:54;;;;;;;21.17;11.23;;;436.00;1817.60;;;;;;5049999;28;20055;-71
2021/05/01 03:51:20;;;;;;;21.05;10.93;;;436.00;1843.20;;;;;;5050186;28;20025;-70
2021/05/01 03:53:46;;;;;;;19.02;11.18;;;436.00;1843.20;;;;;;5049938;28;20033;-71
2021/05/01 03:56:12;;;;;;;16.42;10.35;;;436.00;1843.20;;;;;;5049935;28;20021;-67
2021/05/01 03:58:37;;;;;;;20.13;10.95;;;436.00;1843.20;;;;;;5050384;28;20029;-70
2021/05/01 04:01:03;;;;;;;15.48;9.98;;;436.00;1843.20;;;;;;5049912;28;20064;-70
2021/05/01 04:03:29;;;;;;;19.63;10.90;;;436.00;1817.60;;;;;;5050293;28;20493;-70
2021/05/01 04:05:55;;;;;;;19.23;10.30;;;436.00;1843.20;;;;;;5049961;28;20032;-71
2021/05/01 04:08:20;;;;;;;13.18;9.30;;;436.00;1817.60;;;;;;5050156;28;20025;-70
2021/05/01 04:10:46;;;;;;;14.27;9.85;;;436.00;1817.60;;;;;;5049937;28;20110;-69
2021/05/01 04:13:12;;;;;;;14.93;9.20;;;436.00;1817.60;;;;;;5049962;28;20114;-70
2021/05/01 04:15:37;;;;;;;17.88;9.85;;;436.00;1843.20;;;;;;5049969;28;20475;-70
2021/05/01 04:18:03;;;;;;;15.95;9.10;;;436.00;1843.20;;;;;;5049695;28;20049;-71
2021/05/01 04:20:29;;;;;;;17.17;9.60;;;435.90;1843.20;;;;;;5050205;28;20017;-71
2021/05/01 04:22:55;;;;;;;18.30;9.55;;;435.90;1843.20;;;;;;5049742;28;20044;-69
2021/05/01 04:25:21;;;;;;;18.92;10.50;;;435.90;1843.20;;;;;;5050256;28;20087;-71
2021/05/01 04:27:46;;;;;;;16.55;9.73;;;435.90;1843.20;;;;;;5049697;28;20048;-71
2021/05/01 04:30:13;;;;;;;14.77;9.77;;;435.90;1843.20;;;;;;5049727;28;20029;-71
2021/05/01 04:32:39;;;;;;;18.60;9.50;;;435.90;1843.20;;;;;;5049583;28;20029;-70
2021/05/01 04:35:06;;;;;;;16.30;9.45;;;435.90;1868.80;;;;;;5051409;28;20028;-71
2021/05/01 04:37:32;;;;;;;15.48;9.75;;;435.90;1868.80;;;;;;5053182;28;20467;-68
2021/05/01 04:39:58;;;;;;;14.85;9.07;;;435.90;1868.80;;;;;;5053560;28;20040;-70
2021/05/01 04:42:24;;;;;;;16.92;9.52;;;435.90;1868.80;;;;;;5053169;28;20096;-71
2021/05/01 04:44:50;;;;;;;14.38;9.27;;;435.90;1868.80;;;;;;5053383;28;20531;-70
2021/05/01 04:47:16;;;;;;;15.38;9.52;;;436.00;1868.80;;;;;;5053016;28;20112;-70
2021/05/01 04:49:43;;;;;;;16.13;9.88;;;436.00;1868.80;;;;;;5053097;28;20048;-70
2021/05/01 04:52:09;;;;;;;18.95;9.50;;;436.00;1894.40;;;;;;5053130;28;20099;-70
2021/05/01 04:54:35;;;;;;;18.60;9.85;;;435.90;1894.40;;;;;;5053105;28;20082;-71
2021/05/01 04:57:01;;;;;;;17.80;10.05;;;436.00;1894.40;;;;;;5052990;28;20025;-70
2021/05/01 04:59:26;;;;;;;14.52;9.50;;;436.00;1894.40;;;;;;5052913;28;20025;-71
2021/05/01 05:01:52;;;;;;;14.18;9.25;;;435.90;1894.40;;;;;;5052949;28;20455;-70
2021/05/01 05:04:18;;;;;;;17.52;9.82;;;435.90;1894.40;;;;;;5053078;28;20079;-71
2021/05/01 05:06:43;;;;;;;21.50;10.45;;;435.90;1920.00;;;;;;5053070;28;20379;-70
2021/05/01 05:09:09;;;;;;;14.00;9.15;;;436.00;1894.40;;;;;;5053175;28;20079;-69
2021/05/01 05:11:35;;;;;;;13.93;9.45;;;436.00;1920.00;;;;;;5050213;28;20382;-69
2021/05/01 05:14:01;;;;;;;14.60;8.95;;;436.00;1920.00;;;;;;5056821;28;20039;-69
2021/05/01 05:16:27;;;;;;;14.82;10.05;;;436.10;1920.00;;;;;;5060667;28;20021;-69
2021/05/01 05:18:55;;;;;;;15.90;9.95;;;436.10;1920.00;;;;;;5060420;28;20121;-70
2021/05/01 05:21:21;;;;;;;16.25;10.68;;;436.10;1920.00;;;;;;5062089;28;20016;-70
2021/05/01 05:23:47;;;;;;;20.00;9.95;;;436.10;1920.00;;;;;;5062592;28;20017;-70
2021/05/01 05:26:13;;;;;;;19.70;10.82;;;436.10;1920.00;;;;;;5069340;28;20039;-70
2021/05/01 05:28:38;;;;;;;19.83;11.07;;;436.10;1920.00;;;;;;5072651;28;20052;-69
2021/05/01 05:31:04;;;;;;;17.10;10.88;;;460.80;1945.60;;;;;;5072399;28;20074;-69
2021/05/01 05:33:30;;;;;;;16.95;11.18;;;460.80;1945.60;;;;;;5072351;28;20082;-69
2021/05/01 05:35:56;;;;;;;21.02;10.73;;;460.90;1945.60;;;;;;5072148;28;20103;-69
2021/05/01 05:38:22;;;;;;;19.58;10.73;;;460.90;1945.60;;;;;;5072041;28;20031;-70
2021/05/01 05:40:47;;;;;;;16.92;10.25;;;460.90;1945.60;;;;;;5072499;28;20037;-70
2021/05/01 05:43:13;;;;;;;17.50;10.88;;;461.00;1945.60;;;;;;5072010;28;20513;-69
2021/05/01 05:45:41;;;;;;;17.05;10.30;;;461.00;1945.60;;;;;;5071892;28;20028;-69
2021/05/01 05:48:07;;;;;;;16.33;9.93;;;461.00;1945.60;;;;;;5072140;28;20025;-69
2021/05/01 05:50:33;;;;;;;17.45;10.52;;;461.00;1920.00;;;;;;5071800;28;20475;-70
2021/05/01 05:52:59;;;;;;;18.52;10.93;;;461.10;1945.60;;;;;;5072078;28;20065;-69
2021/05/01 05:55:26;;;;;;;17.73;11.18;;;461.10;1945.60;;;;;;5070154;28;20387;-69
2021/05/01 05:57:53;;;;;;;20.55;10.52;;;461.10;1945.60;;;;;;5071749;28;20025;-71
2021/05/01 06:00:22;;;;;;;17.23;10.45;;;461.20;1945.60;;;;;;5071847;28;20021;-69
2021/05/01 06:02:49;;;;;;;14.88;10.30;;;461.20;1945.60;;;;;;5071880;28;20032;-70
2021/05/01 06:05:27;;;;;;;15.93;10.80;;;461.30;1945.60;;;;;;5071549;28;20016;-70
2021/05/01 06:07:58;;;;;;;15.35;10.25;;;461.30;1920.00;;;;;;5071661;28;20108;-70
2021/05/01 06:10:24;;;;;;;17.27;11.02;;;461.30;1920.00;;;;;;5071747;28;20028;-70
2021/05/01 06:12:52;;;;;;;18.45;10.25;;;461.30;1920.00;;;;;;5071623;28;20036;-70
2021/05/01 06:15:18;;;;;;;18.73;11.05;;;461.40;1920.00;;;;;;5071713;28;20021;-71
2021/05/01 06:17:46;;;;;;;18.05;10.60;;;461.40;1920.00;;;;;;5071259;28;20056;-70
2021/05/01 06:20:14;;;;;;;16.30;10.73;;;461.50;1894.40;;;;;;5071439;28;20428;-70
2021/05/01 06:22:40;;;;;;;16.88;10.23;;;461.60;1894.40;;;;;;5071745;28;20021;-70
2021/05/01 06:25:08;;;;;;;19.98;10.52;;;461.60;1868.80;;;;;;5071341;28;20048;-70
2021/05/01 06:27:34;;;;;;;17.40;9.75;;;461.60;1894.40;;;;;;5071199;28;20493;-70
2021/05/01 06:30:01;;;;;;;19.42;9.73;;;461.70;1894.40;;;;;;5071348;28;20036;-70
2021/05/01 06:32:27;;;;;;;18.52;9.20;;;461.70;1894.40;;;;;;5071193;28;20375;-70
2021/05/01 06:34:55;;;;;;;16.00;9.15;;;486.40;1894.40;;;;;;5071131;28;20387;-70
2021/05/01 06:37:22;;;;;;;16.05;10.18;;;486.40;1894.40;;;;;;5069880;28;20474;-70
2021/05/01 06:39:50;;;;;;;19.30;10.10;;;486.40;1894.40;;;;;;5069886;28;20097;-70
2021/05/01 06:42:28;;;;;;;29.30;19.80;;;486.50;1894.40;;;;;;5071058;28;20509;-70
2021/05/01 06:45:03;;;;;;;25.75;18.23;;;486.60;1894.40;;;;;;5070796;28;20027;-70
2021/05/01 06:47:32;;;;;;;53.65;37.05;;;486.50;1843.20;;;;;;5071296;28;20123;-70
2021/05/01 06:50:04;;;;;;;28.15;17.15;;;486.60;1843.20;;;;;;5071008;28;20092;-70
2021/05/01 06:52:31;;;;;;;21.48;14.45;;;486.60;1843.20;;;;;;5070975;28;20032;-69
2021/05/01 06:55:01;;;;;;;13.07;7.90;;;486.70;1843.20;;;;;;5070936;28;20028;-70
2021/05/01 06:57:27;;;;;;;15.25;8.70;;;486.70;1843.20;;;;;;5070259;28;20035;-70
2021/05/01 06:59:56;;;;;;;17.80;10.35;;;486.50;1843.20;;;;;;5070534;28;20020;-70
2021/05/01 07:02:28;;;;;;;17.23;8.30;;;486.80;1843.20;;;;;;5070829;28;20060;-71
2021/05/01 07:04:54;;;;;;;;;;;486.90;1843.20;;;;;;5071008;28;20092;-70
2021/05/01 07:07:24;;;;;;;15.98;7.32;;;486.90;1843.20;;;;;;5070811;28;20392;-70
2021/05/01 07:09:50;;;;;;;19.00;10.93;;;486.90;1843.20;;;;;;5070940;28;20095;-69
2021/05/01 07:12:21;;;;;;;14.90;9.57;;;487.00;1843.20;;;;;;5070671;28;20028;-69
2021/05/01 07:14:47;;;;;;;17.88;7.72;;;487.10;1817.60;;;;;;5070993;28;20024;-70
2021/05/01 07:17:14;;;;;;;30.30;8.48;;;487.10;1792.00;;;;;;5070337;28;20044;-68
2021/05/01 07:19:41;;;;;;;23.08;8.10;;;487.10;1792.00;;;;;;5070783;28;20034;-69
2021/05/01 07:22:08;;;;;;;17.58;7.43;;;487.20;1792.00;;;;;;5070774;28;20025;-70
2021/05/01 07:24:35;;;;;;;18.23;7.32;;;487.30;1766.40;;;;;;5070364;28;20035;-70
2021/05/01 07:27:01;;;;;;;14.73;7.25;;;487.30;1740.80;;;;;;5069293;28;20051;-70
2021/05/01 07:29:31;;;;;;;14.43;7.70;;;487.30;1740.80;;;;;;5070768;28;20111;-70
2021/05/01 07:31:58;;;;;;;22.20;8.70;;;512.00;1766.40;;;;;;5070564;28;20104;-69
